Airport View

Enter AWOS ICAO identifier for current METAR.

ex. KFNL

K2I0 262235Z AUTO 32015G21KT 10SM BKN025 OVC032 02/M03 A3009 RMK AO2 T00221030

26 Feb 2020 22:57

Frequency: 126.475

Phone: 270-821-4554

Other Area AWOS: KM21 - KOWB - KEHR - K5M9

TAF KOWB 261720Z 2618/2718 31012G20KT P6SM OVC012 TEMPO 2618/2621 3SM -SHSN FM270200 31014G22KT P6SM BKN045 FM271200 29009KT P6SM SCT250